Time;durP1;ratioP1;P1;durP2;ratioP2;P2;SDS_P1;SDS_P2;PMS_P1;PMS_P2;Temp;Humidity;BMP_temperature;BMP_pressure;BME280_temperature;BME280_humidity;BME280_pressure;Samples;Min_cycle;Max_cycle;Signal;HPM_P1;HPM_P2
2022/07/19 00:02:09;;;;;;;8.13;2.90;;;;;;;26.60;60.86;98219.69;5085938;28;20150;-94
2022/07/19 00:04:37;;;;;;;13.27;3.10;;;;;;;26.61;62.20;98220.53;5083284;28;21130;-94
2022/07/19 00:07:04;;;;;;;13.32;3.30;;;;;;;26.52;61.29;98212.28;5072580;28;20488;-95
2022/07/19 00:09:29;;;;;;;10.52;3.63;;;;;;;26.52;61.44;98212.28;5066331;28;20028;-94
2022/07/19 00:11:55;;;;;;;8.18;3.17;;;;;;;26.50;62.75;98211.59;5068103;28;20481;-95
2022/07/19 00:14:21;;;;;;;7.78;2.88;;;;;;;26.36;63.73;98211.88;5076446;28;20039;-94
2022/07/19 00:16:48;;;;;;;8.02;2.90;;;;;;;26.42;63.24;98214.06;5075330;28;20020;-95
2022/07/19 00:19:14;;;;;;;8.90;3.10;;;;;;;26.52;62.41;98201.59;5068054;28;20153;-94
2022/07/19 00:21:43;;;;;;;9.40;3.00;;;;;;;26.55;61.03;98193.31;5077275;28;20032;-94
2022/07/19 00:24:09;;;;;;;9.70;3.40;;;;;;;26.53;60.91;98194.44;5070629;28;20033;-93
2022/07/19 00:26:34;;;;;;;9.63;3.08;;;;;;;26.83;57.42;98201.72;5070144;28;20526;-92
2022/07/19 00:29:01;;;;;;;10.27;3.28;;;;;;;27.39;59.12;98196.97;5073512;28;20048;-93
2022/07/19 00:31:27;;;;;;;9.35;3.10;;;;;;;27.41;57.13;98190.50;5073534;28;20711;-93
2022/07/19 00:33:53;;;;;;;9.57;3.20;;;;;;;26.79;59.31;98188.72;5067753;28;20052;-93
2022/07/19 00:36:19;;;;;;;9.23;3.20;;;;;;;26.46;61.24;98191.44;5087628;28;20016;-93
2022/07/19 00:38:45;;;;;;;8.60;2.83;;;;;;;26.32;63.05;98194.38;5075526;28;20171;-94
2022/07/19 00:41:11;;;;;;;8.95;3.15;;;;;;;26.15;64.83;98185.97;5085868;28;20044;-93
2022/07/19 00:43:43;;;;;;;9.38;3.40;;;;;;;26.13;64.98;98179.06;5071059;28;20029;-93
2022/07/19 00:46:17;;;;;;;10.95;3.15;;;;;;;26.06;64.38;98184.03;5071935;28;20040;-94
2022/07/19 00:48:43;;;;;;;9.23;3.28;;;;;;;26.21;62.15;98179.28;5087897;28;20040;-93
2022/07/19 00:51:14;;;;;;;10.40;2.58;;;;;;;26.23;61.84;98178.16;5072857;28;20039;-95
2022/07/19 00:53:40;;;;;;;7.70;2.92;;;;;;;26.23;60.78;98186.19;5071422;28;20048;-93
2022/07/19 00:56:17;;;;;;;9.30;2.85;;;;;;;26.12;61.70;98174.66;5071633;28;20099;-95
2022/07/19 00:58:42;;;;;;;11.18;3.13;;;;;;;26.08;63.14;98176.75;5074795;28;20024;-94
2022/07/19 01:01:09;;;;;;;7.55;2.78;;;;;;;26.44;57.70;98171.97;5088403;28;20039;-95
2022/07/19 01:03:38;;;;;;;11.77;3.00;;;;;;;26.97;55.11;98173.78;5072113;28;20028;-93
2022/07/19 01:06:03;;;;;;;8.30;2.75;;;;;;;26.84;56.09;98184.69;5070229;28;20024;-94
2022/07/19 01:08:29;;;;;;;8.68;2.65;;;;;;;26.04;59.50;98173.50;5086994;28;20448;-94
2022/07/19 01:10:55;;;;;;;8.98;2.80;;;;;;;25.84;62.01;98168.88;5072919;28;20032;-93
2022/07/19 01:13:20;;;;;;;8.10;2.72;;;;;;;25.97;59.97;98166.06;5069697;28;20035;-93
2022/07/19 01:15:46;;;;;;;8.05;3.00;;;;;;;25.84;61.05;98153.69;5068656;28;20032;-96
2022/07/19 01:18:11;;;;;;;8.07;2.63;;;;;;;26.00;59.29;98169.34;5069999;28;20032;-93
2022/07/19 01:20:39;;;;;;;6.85;2.47;;;;;;;25.95;59.58;98165.34;5068129;28;20131;-93
2022/07/19 01:23:07;;;;;;;7.95;2.78;;;;;;;25.96;59.86;98154.53;5070319;28;20028;-93
2022/07/19 01:25:34;;;;;;;7.00;2.60;;;;;;;26.02;56.71;98150.53;5073540;28;20056;-93
2022/07/19 01:28:04;;;;;;;10.75;2.67;;;;;;;26.14;57.13;98156.66;5069666;28;20026;-94
2022/07/19 01:30:29;;;;;;;8.18;2.50;;;;;;;26.04;58.63;98149.44;5070695;28;20025;-93
2022/07/19 01:32:56;;;;;;;8.50;2.80;;;;;;;25.98;57.16;98141.03;5074826;28;20037;-93
2022/07/19 01:35:22;;;;;;;7.03;2.47;;;;;;;26.04;57.10;98148.56;5069190;28;20024;-93
2022/07/19 01:37:47;;;;;;;7.80;2.60;;;;;;;26.15;56.29;98153.03;5071441;28;20040;-95
2022/07/19 01:40:15;;;;;;;7.25;2.50;;;;;;;26.05;53.71;98148.47;5073854;28;20084;-95
2022/07/19 01:42:41;;;;;;;7.78;2.33;;;;;;;26.11;51.32;98151.59;5067418;28;20040;-95
2022/07/19 01:45:08;;;;;;;8.85;2.25;;;;;;;26.03;50.93;98144.22;5072392;28;20025;-96
2022/07/19 01:47:35;;;;;;;7.15;2.25;;;;;;;26.11;47.92;98155.13;5078144;28;20114;-94
2022/07/19 01:50:01;;;;;;;8.63;2.40;;;;;;;26.09;46.60;98146.38;5069007;28;20691;-96
2022/07/19 01:52:28;;;;;;;8.55;2.45;;;;;;;26.20;45.16;98150.84;5074612;28;20038;-95
2022/07/19 01:54:54;;;;;;;5.45;1.85;;;;;;;26.19;42.91;98152.66;5085011;28;20051;-94
2022/07/19 01:57:19;;;;;;;6.85;1.70;;;;;;;26.19;42.21;98147.31;5068998;28;20028;-94
2022/07/19 01:59:47;;;;;;;6.03;2.22;;;;;;;26.28;40.89;98148.38;5068552;28;20024;-94
2022/07/19 02:02:13;;;;;;;6.80;1.88;;;;;;;26.18;40.08;98142.94;5068499;28;20726;-94
2022/07/19 02:04:38;;;;;;;9.07;2.25;;;;;;;26.27;40.22;98140.47;5075443;28;20036;-95
2022/07/19 02:07:12;;;;;;;7.18;2.17;;;;;;;26.25;39.07;98145.97;5066466;28;20028;-94
2022/07/19 02:09:37;;;;;;;5.18;1.70;;;;;;;26.57;36.08;98153.09;5075301;28;20028;-93
2022/07/19 02:12:03;;;;;;;8.10;1.80;;;;;;;26.41;35.67;98146.34;5069139;28;21793;-93
2022/07/19 02:14:29;;;;;;;7.75;1.80;;;;;;;26.57;34.60;98143.25;5068112;28;20029;-93
2022/07/19 02:16:54;;;;;;;6.25;1.65;;;;;;;26.38;32.98;98146.63;5070649;28;20054;-95
2022/07/19 02:19:21;;;;;;;6.07;1.60;;;;;;;26.69;32.28;98149.38;5072067;28;20024;-95
2022/07/19 02:21:47;;;;;;;5.40;1.50;;;;;;;26.57;31.99;98137.88;5070851;28;20041;-93
2022/07/19 02:24:13;;;;;;;7.13;2.25;;;;;;;26.71;30.43;98150.13;5072252;28;20397;-93
2022/07/19 02:26:39;;;;;;;5.68;1.35;;;;;;;26.79;29.92;98160.13;5071833;28;20052;-94
2022/07/19 02:29:05;;;;;;;5.20;1.30;;;;;;;26.68;29.62;98149.50;5068371;28;20028;-94
2022/07/19 02:31:34;;;;;;;8.02;1.33;;;;;;;26.73;28.67;98149.97;5070040;28;20039;-94
2022/07/19 02:33:59;;;;;;;5.28;1.48;;;;;;;26.80;27.68;98156.50;5071856;28;20480;-95
2022/07/19 02:36:25;;;;;;;6.95;1.30;;;;;;;26.97;27.21;98160.38;5067947;28;20030;-95
2022/07/19 02:38:51;;;;;;;5.25;1.30;;;;;;;26.92;27.50;98155.44;5072836;28;20052;-94
2022/07/19 02:41:17;;;;;;;6.20;1.30;;;;;;;26.87;27.56;98154.97;5074721;28;20122;-92
2022/07/19 02:43:43;;;;;;;7.60;1.60;;;;;;;26.96;26.93;98155.16;5071474;28;20107;-93
2022/07/19 02:46:08;;;;;;;5.32;1.50;;;;;;;27.13;26.21;98159.09;5070604;28;20024;-94
2022/07/19 02:48:34;;;;;;;7.70;1.42;;;;;;;27.06;27.07;98148.06;5069917;28;20596;-95
2022/07/19 02:50:59;;;;;;;5.60;1.50;;;;;;;26.95;27.21;98146.31;5071431;28;20130;-94
2022/07/19 02:53:25;;;;;;;6.72;1.50;;;;;;;27.00;27.42;98148.56;5078324;28;20460;-93
2022/07/19 02:55:50;;;;;;;8.32;1.75;;;;;;;26.91;27.49;98136.84;5067616;28;20480;-94
2022/07/19 02:58:16;;;;;;;6.72;1.70;;;;;;;26.83;27.86;98126.78;5075347;28;20507;-94
2022/07/19 03:00:42;;;;;;;6.10;1.23;;;;;;;26.97;27.31;98122.94;5069172;28;20378;-93
2022/07/19 03:05:53;;;;;;;5.78;1.42;;;;;;;27.02;27.24;98127.91;5066023;28;20401;-95
2022/07/19 03:08:19;;;;;;;5.97;1.20;;;;;;;26.97;27.32;98124.75;5066021;28;20040;-93
2022/07/19 03:10:44;;;;;;;5.43;1.40;;;;;;;26.89;27.01;98122.78;5066260;28;20029;-94
2022/07/19 03:13:11;;;;;;;4.25;1.30;;;;;;;27.05;26.58;98119.59;5069954;28;20396;-94
2022/07/19 03:15:37;;;;;;;8.15;1.60;;;;;;;26.88;26.94;98121.91;5074795;28;20032;-93
2022/07/19 03:18:03;;;;;;;5.65;1.30;;;;;;;27.04;26.55;98117.88;5067502;28;20154;-93
2022/07/19 03:20:29;;;;;;;8.75;1.45;;;;;;;26.91;27.28;98118.97;5074673;28;20373;-95
2022/07/19 03:22:54;;;;;;;5.55;1.40;;;;;;;26.87;28.16;98114.84;5070521;28;20021;-93
2022/07/19 03:25:20;;;;;;;7.88;1.38;;;;;;;26.88;27.87;98121.91;5069149;28;20039;-94
2022/07/19 03:27:45;;;;;;;6.30;1.58;;;;;;;26.77;26.69;98108.63;5068491;28;20102;-94
2022/07/19 03:30:11;;;;;;;5.03;1.20;;;;;;;26.74;27.36;98100.88;5071121;28;20110;-93
2022/07/19 03:32:40;;;;;;;4.78;1.25;;;;;;;26.74;27.44;98100.88;5074314;28;20064;-93
2022/07/19 03:35:06;;;;;;;5.85;1.40;;;;;;;26.69;27.47;98101.25;5064300;28;20029;-94
2022/07/19 03:37:32;;;;;;;5.32;1.40;;;;;;;26.60;28.11;98102.03;5066358;28;20047;-95
2022/07/19 03:39:57;;;;;;;5.00;1.40;;;;;;;26.68;28.16;98102.22;5066384;28;20040;-94
2022/07/19 03:42:23;;;;;;;8.68;1.60;;;;;;;26.77;27.74;98102.44;5067549;28;20027;-94
2022/07/19 03:44:48;;;;;;;8.20;1.40;;;;;;;26.69;27.88;98090.53;5063122;28;20020;-94
2022/07/19 03:47:14;;;;;;;7.60;1.60;;;;;;;26.61;29.09;98095.69;5070686;28;20028;-95
2022/07/19 03:49:39;;;;;;;6.07;1.67;;;;;;;26.45;30.34;98071.25;5072972;28;20036;-95
2022/07/19 03:52:05;;;;;;;5.68;1.73;;;;;;;26.60;30.19;98082.44;5078821;28;20036;-95
2022/07/19 03:54:30;;;;;;;7.00;1.73;;;;;;;26.83;29.35;98081.31;5063141;28;20055;-94
2022/07/19 03:56:58;;;;;;;6.97;1.42;;;;;;;26.63;29.95;98075.00;5065885;28;20028;-93
2022/07/19 03:59:25;;;;;;;7.07;1.38;;;;;;;26.68;29.93;98082.63;5084099;28;20025;-94
2022/07/19 04:01:51;;;;;;;7.15;2.00;;;;;;;26.78;30.54;98070.19;5066467;28;20235;-95
2022/07/19 04:04:17;;;;;;;7.60;1.85;;;;;;;26.68;31.65;98056.75;5067291;28;20024;-93
2022/07/19 04:06:43;;;;;;;6.07;1.80;;;;;;;26.84;32.09;98056.25;5079012;28;20191;-94
2022/07/19 04:09:09;;;;;;;11.60;2.17;;;;;;;27.03;32.18;98060.84;5071845;28;20150;-93
2022/07/19 04:11:35;;;;;;;7.00;1.98;;;;;;;27.21;32.03;98057.50;5069737;28;20028;-94
2022/07/19 04:14:01;;;;;;;9.68;1.90;;;;;;;27.23;32.99;98051.03;5079563;28;20141;-94
2022/07/19 04:16:26;;;;;;;7.60;2.10;;;;;;;27.17;33.15;98056.09;5066528;28;20024;-95
2022/07/19 04:18:54;;;;;;;9.70;2.47;;;;;;;27.18;33.22;98058.66;5065993;28;20036;-94
2022/07/19 04:21:20;;;;;;;6.63;2.17;;;;;;;27.27;32.85;98048.13;5067396;28;20062;-95
2022/07/19 04:23:45;;;;;;;8.05;1.77;;;;;;;27.05;32.92;98041.97;5071131;28;20032;-94
2022/07/19 04:26:11;;;;;;;8.13;2.05;;;;;;;27.12;32.92;98048.47;5073589;28;20040;-93
2022/07/19 04:28:37;;;;;;;6.32;1.83;;;;;;;27.12;33.65;98050.31;5084072;28;20042;-94
2022/07/19 04:31:02;;;;;;;9.82;2.10;;;;;;;27.04;34.79;98041.16;5076535;28;20024;-93
2022/07/19 04:33:28;;;;;;;7.60;2.20;;;;;;;27.07;34.54;98045.34;5069186;28;20023;-94
2022/07/19 04:35:54;;;;;;;8.23;1.95;;;;;;;26.97;34.77;98047.16;5071733;28;20036;-92
2022/07/19 04:38:20;;;;;;;7.13;2.08;;;;;;;26.98;35.12;98039.00;5075585;28;20158;-94
2022/07/19 04:40:46;;;;;;;7.47;2.28;;;;;;;26.97;35.40;98034.63;5075222;28;20080;-94
2022/07/19 04:43:12;;;;;;;9.82;1.85;;;;;;;27.01;34.98;98028.00;5076061;28;20035;-94
2022/07/19 04:45:39;;;;;;;7.28;2.53;;;;;;;26.96;35.80;98032.09;5079516;28;20751;-95
2022/07/19 04:48:05;;;;;;;10.60;2.30;;;;;;;26.83;37.10;98029.66;5072144;28;20024;-94
2022/07/19 04:50:33;;;;;;;10.07;2.30;;;;;;;26.85;36.86;98027.69;5075399;28;20032;-95
2022/07/19 04:52:58;;;;;;;8.07;2.35;;;;;;;26.77;37.90;98023.00;5094184;28;20025;-95
2022/07/19 04:55:24;;;;;;;10.88;2.35;;;;;;;26.85;37.23;98011.66;5075666;28;20049;-95
2022/07/19 04:57:50;;;;;;;6.85;2.30;;;;;;;26.82;38.10;98020.78;5074939;28;20028;-96
2022/07/19 05:00:16;;;;;;;7.28;1.95;;;;;;;26.78;38.54;98016.69;5091969;28;20028;-95
2022/07/19 05:02:42;;;;;;;7.38;2.17;;;;;;;26.64;39.55;98023.22;5072097;28;20039;-94
2022/07/19 05:05:08;;;;;;;11.30;2.20;;;;;;;26.51;40.77;98014.56;5076025;28;20047;-94
2022/07/19 05:07:34;;;;;;;6.72;2.40;;;;;;;26.66;39.80;98025.75;5081041;28;20120;-93
2022/07/19 05:10:00;;;;;;;11.75;2.65;;;;;;;26.61;40.08;98006.56;5083786;28;20105;-93
2022/07/19 05:12:26;;;;;;;10.20;2.70;;;;;;;26.66;39.68;98007.88;5085139;28;20033;-94
2022/07/19 05:14:51;;;;;;;11.35;2.60;;;;;;;26.66;39.96;98010.53;5074197;28;20031;-93
2022/07/19 05:17:17;;;;;;;8.10;2.33;;;;;;;26.64;40.49;98006.31;5031951;28;20497;-92
2022/07/19 05:19:42;;;;;;;7.05;2.28;;;;;;;26.46;41.83;97998.91;5072863;28;20024;-92
2022/07/19 05:22:08;;;;;;;9.70;2.58;;;;;;;26.69;40.55;98009.44;5052634;28;20465;-94
2022/07/19 05:24:33;;;;;;;7.35;2.20;;;;;;;26.64;41.48;98006.31;5057513;28;20184;-93
2022/07/19 05:27:02;;;;;;;9.00;2.65;;;;;;;26.52;42.92;97997.53;5040877;28;20074;-93
2022/07/19 05:29:27;;;;;;;9.02;2.38;;;;;;;26.50;42.79;98004.84;5041074;28;20064;-94
2022/07/19 05:31:54;;;;;;;8.40;2.35;;;;;;;26.46;43.79;98006.94;5042272;28;20079;-94
2022/07/19 05:34:19;;;;;;;7.97;2.38;;;;;;;26.63;43.26;98001.97;5041887;28;20029;-94
2022/07/19 05:36:45;;;;;;;9.50;2.42;;;;;;;26.48;43.20;97996.94;5055453;28;20599;-94
2022/07/19 05:39:12;;;;;;;9.38;2.60;;;;;;;26.38;45.97;97996.91;5039682;28;20026;-94
2022/07/19 05:41:38;;;;;;;7.05;2.47;;;;;;;26.47;44.83;98000.63;5042213;28;20052;-94
2022/07/19 05:44:03;;;;;;;9.07;2.35;;;;;;;26.46;45.18;97998.91;5036599;28;20118;-94
2022/07/19 05:46:29;;;;;;;8.38;2.28;;;;;;;26.50;44.56;97991.47;5059663;28;20025;-94
2022/07/19 05:48:54;;;;;;;8.65;2.08;;;;;;;26.50;44.96;97997.69;5059078;28;20037;-94
2022/07/19 05:51:20;;;;;;;8.10;2.17;;;;;;;26.46;45.78;97990.91;5045149;28;20029;-95
2022/07/19 05:53:45;;;;;;;9.23;2.22;;;;;;;26.39;45.74;98000.44;5059178;28;20059;-94
2022/07/19 05:56:11;;;;;;;8.23;2.70;;;;;;;26.44;45.53;97992.00;5053497;28;20478;-94
2022/07/19 05:58:37;;;;;;;11.57;2.30;;;;;;;26.37;47.84;97983.66;5044002;28;20029;-93
2022/07/19 06:01:19;;;;;;;7.95;2.65;;;;;;;26.39;46.38;97992.41;5041274;28;20032;-93
2022/07/19 06:03:49;;;;;;;7.83;2.07;;;;;;;26.44;46.48;97994.69;5058760;28;20045;-94
2022/07/19 06:06:15;;;;;;;6.90;2.17;;;;;;;26.23;48.66;97988.41;5059262;28;20320;-93
2022/07/19 06:08:42;;;;;;;7.00;2.40;;;;;;;26.25;48.57;97993.63;5056696;28;20192;-95
2022/07/19 06:11:07;;;;;;;8.30;2.30;;;;;;;26.26;47.17;97989.94;5042135;28;20567;-95
2022/07/19 06:13:33;;;;;;;8.13;2.40;;;;;;;26.32;47.32;97985.88;5042839;28;20124;-93
2022/07/19 06:15:59;;;;;;;8.13;2.20;;;;;;;26.43;46.91;97987.63;5057624;28;20045;-94
2022/07/19 06:18:25;;;;;;;9.30;2.75;;;;;;;26.49;46.94;97987.94;5059574;28;20052;-95
2022/07/19 06:20:51;;;;;;;9.93;2.55;;;;;;;26.50;47.14;97995.00;5058155;28;20374;-93
2022/07/19 06:23:16;;;;;;;7.55;2.25;;;;;;;26.41;47.10;97991.28;5060635;28;20058;-96
2022/07/19 06:25:45;;;;;;;8.82;2.38;;;;;;;26.51;47.62;97991.31;5056560;28;20247;-95
2022/07/19 06:28:10;;;;;;;8.40;2.50;;;;;;;26.61;46.66;97990.53;5058570;28;20029;-94
2022/07/19 06:30:36;;;;;;;7.75;2.58;;;;;;;26.54;47.92;97999.09;5045263;28;20036;-94
2022/07/19 06:33:02;;;;;;;13.13;2.50;;;;;;;26.61;47.57;97993.22;5040746;28;20085;-95
2022/07/19 06:35:27;;;;;;;9.13;2.58;;;;;;;26.61;48.29;98001.22;5055855;28;20021;-94
2022/07/19 06:37:58;;;;;;;9.85;2.70;;;;;;;26.59;49.54;98001.38;5038630;28;20563;-95
2022/07/19 06:40:24;;;;;;;9.07;2.60;;;;;;;26.54;48.96;98000.91;5059022;28;20487;-94
2022/07/19 06:42:49;;;;;;;8.15;2.38;;;;;;;26.46;49.80;98001.59;5043215;28;20029;-94
2022/07/19 06:45:15;;;;;;;8.60;2.03;;;;;;;26.41;49.91;97991.28;5057723;28;20029;-93
2022/07/19 06:47:41;;;;;;;6.97;2.50;;;;;;;26.37;51.22;97992.56;5059388;28;20568;-96
2022/07/19 06:50:09;;;;;;;9.95;2.78;;;;;;;26.30;50.47;97985.19;5059657;28;20143;-94
2022/07/19 06:52:37;;;;;;;10.32;2.55;;;;;;;26.34;49.52;97989.28;5056852;28;20118;-93
2022/07/19 06:55:04;;;;;;;7.18;2.20;;;;;;;26.42;50.51;97994.81;5058304;28;20143;-94
2022/07/19 06:57:29;;;;;;;10.88;2.28;;;;;;;26.51;50.83;97985.13;5056924;28;20143;-94
2022/07/19 06:59:57;;;;;;;11.55;2.35;;;;;;;26.59;49.94;97979.97;5056682;28;20174;-92
2022/07/19 07:02:23;;;;;;;9.18;2.63;;;;;;;26.72;52.06;97971.75;5044090;28;20085;-93
2022/07/19 07:04:52;;;;;;;7.25;2.60;;;;;;;26.94;49.59;97980.56;5059861;28;20886;-93
2022/07/19 07:07:17;;;;;;;9.50;2.40;;;;;;;27.11;50.38;97973.69;5044394;28;20029;-93
2022/07/19 07:09:43;;;;;;;7.95;2.20;;;;;;;27.25;49.97;97966.09;5043130;28;20112;-93
2022/07/19 07:12:08;;;;;;;8.70;2.25;;;;;;;27.27;51.76;97962.44;5062587;28;20029;-94
2022/07/19 07:14:34;;;;;;;7.13;2.40;;;;;;;27.39;50.23;97966.69;5062408;28;20037;-94
2022/07/19 07:17:00;;;;;;;9.60;2.33;;;;;;;27.43;50.07;97960.06;5066215;28;20082;-93
2022/07/19 07:19:26;;;;;;;7.93;2.60;;;;;;;27.60;47.74;97961.22;5065027;28;20280;-94
2022/07/19 07:21:52;;;;;;;7.88;2.72;;;;;;;27.71;46.54;97957.53;5066178;28;20543;-95
2022/07/19 07:24:17;;;;;;;10.15;2.45;;;;;;;27.76;49.57;97958.78;5052487;28;20415;-95
2022/07/19 07:26:43;;;;;;;9.23;2.25;;;;;;;28.06;47.67;97967.69;5061703;28;20114;-94
2022/07/19 07:29:09;;;;;;;10.43;2.60;;;;;;;28.03;51.06;97959.94;5065845;28;20124;-94
2022/07/19 07:31:34;;;;;;;10.95;2.20;;;;;;;28.07;53.10;97957.78;5063003;28;20116;-92
2022/07/19 07:34:00;;;;;;;9.77;2.40;;;;;;;28.18;48.78;97972.88;5060891;28;20040;-94
2022/07/19 07:36:25;;;;;;;7.70;2.13;;;;;;;28.32;52.12;97972.38;5041425;28;20469;-92
2022/07/19 07:38:51;;;;;;;9.82;2.45;;;;;;;28.27;56.17;97970.16;4936930;28;20076;-93
2022/07/19 07:41:29;;;;;;;10.57;2.38;;;;;;;28.41;50.88;97981.41;5038619;28;20044;-92
2022/07/19 07:43:54;;;;;;;10.15;2.63;;;;;;;28.40;53.97;97974.34;5038263;28;20392;-92
2022/07/19 07:46:20;;;;;;;9.25;2.45;;;;;;;28.51;52.60;97978.69;5059350;28;20079;-92
2022/07/19 07:48:45;;;;;;;12.95;2.75;;;;;;;28.43;47.81;97982.09;5062590;28;20025;-93
2022/07/19 07:51:11;;;;;;;9.15;2.70;;;;;;;28.50;50.31;97980.53;5044827;28;20071;-92
2022/07/19 07:53:37;;;;;;;9.75;2.25;;;;;;;28.67;48.18;97978.09;5059567;28;20497;-92
2022/07/19 07:56:03;;;;;;;9.23;2.58;;;;;;;28.75;49.48;97976.34;5054095;28;20037;-92
2022/07/19 07:58:28;;;;;;;9.30;2.63;;;;;;;28.83;48.09;97974.78;5043596;28;20126;-95
2022/07/19 08:00:55;;;;;;;7.55;2.63;;;;;;;28.93;46.03;97975.56;5064506;28;20067;-94
2022/07/19 08:03:20;;;;;;;8.38;2.90;;;;;;;28.97;46.05;97973.44;5049872;28;20104;-95
2022/07/19 08:05:48;;;;;;;8.82;2.90;;;;;;;29.02;46.35;97963.06;5062328;28;20170;-95
2022/07/19 08:08:17;;;;;;;8.02;2.40;;;;;;;29.10;46.15;97965.84;5062425;28;20033;-93
2022/07/19 08:10:43;;;;;;;9.70;2.60;;;;;;;29.12;46.34;97964.69;5067134;28;20742;-94
2022/07/19 08:13:09;;;;;;;9.00;3.10;;;;;;;29.31;46.56;97962.06;5066106;28;20055;-94
2022/07/19 08:15:36;;;;;;;9.60;2.88;;;;;;;29.59;43.72;97969.06;5049695;28;20477;-94
2022/07/19 08:18:02;;;;;;;10.18;2.97;;;;;;;29.51;41.61;97969.00;5066381;28;20060;-94
2022/07/19 08:20:28;;;;;;;10.48;2.80;;;;;;;29.65;44.97;97962.22;5044670;28;20029;-94
2022/07/19 08:22:54;;;;;;;10.50;2.80;;;;;;;29.98;45.57;97959.84;5049886;28;20555;-94
2022/07/19 08:25:20;;;;;;;10.05;2.88;;;;;;;29.92;39.06;97960.44;5048179;28;20037;-95
2022/07/19 08:27:45;;;;;;;10.05;2.60;;;;;;;30.24;40.19;97959.81;5049774;28;20075;-94
2022/07/19 08:30:14;;;;;;;9.63;2.67;;;;;;;30.49;38.26;97970.75;5063779;28;20129;-95
2022/07/19 08:32:42;;;;;;;7.65;2.55;;;;;;;30.29;38.20;97973.63;5058345;28;20025;-93
2022/07/19 08:35:09;;;;;;;11.10;2.70;;;;;;;30.27;43.00;97955.97;5056589;28;21134;-95
2022/07/19 08:37:35;;;;;;;9.70;2.90;;;;;;;30.19;47.01;97955.91;5060312;28;20059;-95
2022/07/19 08:40:04;;;;;;;10.68;3.00;;;;;;;30.43;51.77;97957.91;5041906;28;20552;-96
2022/07/19 08:42:29;;;;;;;9.45;2.72;;;;;;;30.57;49.02;97962.72;5046659;28;20029;-94
2022/07/19 08:44:59;;;;;;;11.88;3.25;;;;;;;30.23;53.10;97957.28;5063552;28;20033;-94
2022/07/19 08:47:26;;;;;;;9.65;3.50;;;;;;;30.49;55.51;97951.09;5048528;28;20032;-96
2022/07/19 08:49:52;;;;;;;11.15;3.20;;;;;;;30.50;57.70;97950.09;5060370;28;20031;-96
2022/07/19 08:52:19;;;;;;;10.68;3.78;;;;;;;30.50;51.11;97958.16;5049726;28;20021;-92
2022/07/19 08:54:45;;;;;;;10.50;2.83;;;;;;;30.57;47.93;97953.81;5062863;28;20111;-93
2022/07/19 08:59:55;;;;;;;10.25;2.90;;;;;;;31.10;48.16;97951.84;5051268;28;20028;-95
2022/07/19 09:02:23;;;;;;;11.52;3.10;;;;;;;31.07;45.00;97949.50;5052649;28;20025;-93
2022/07/19 09:05:05;;;;;;;8.40;2.80;;;;;;;31.09;46.69;97947.47;5042364;28;20044;-93
2022/07/19 09:07:30;;;;;;;9.52;3.00;;;;;;;31.12;46.93;97945.28;5064453;28;20598;-93
2022/07/19 09:10:17;;;;;;;7.68;3.10;;;;;;;31.23;48.20;97943.28;5075410;28;20033;-96
2022/07/19 09:13:14;;;;;;;8.52;2.80;;;;;;;30.96;46.63;97943.34;5060162;28;20504;-94
2022/07/19 09:15:47;;;;;;;7.70;2.97;;;;;;;31.19;47.79;97937.41;5048763;28;20060;-94
2022/07/19 09:18:16;;;;;;;12.35;3.00;;;;;;;31.52;46.29;97941.97;5047202;28;20031;-94
2022/07/19 09:20:43;;;;;;;11.82;3.40;;;;;;;31.34;44.50;97932.19;5049313;28;20485;-94
2022/07/19 09:23:10;;;;;;;9.93;3.25;;;;;;;31.53;44.32;97919.41;5047868;28;20032;-93
2022/07/19 09:25:40;;;;;;;10.68;3.00;;;;;;;31.52;42.29;97933.88;5053660;28;20523;-94
2022/07/19 09:28:08;;;;;;;9.95;2.97;;;;;;;31.47;42.34;97915.53;5038596;28;20036;-95
2022/07/19 09:30:43;;;;;;;7.70;2.70;;;;;;;31.76;40.08;97915.06;5043526;28;20435;-95
2022/07/19 09:33:12;;;;;;;11.63;2.80;;;;;;;31.93;41.44;97917.72;5065493;28;20071;-93
2022/07/19 09:35:43;;;;;;;10.27;2.85;;;;;;;31.75;40.21;97920.63;5045388;28;20033;-95
2022/07/19 09:38:20;;;;;;;9.82;3.03;;;;;;;31.90;41.65;97909.97;5062480;28;20067;-95
2022/07/19 09:41:08;;;;;;;8.35;2.60;;;;;;;31.77;38.87;97907.81;5045623;28;20037;-95
2022/07/19 09:43:53;;;;;;;9.00;2.72;;;;;;;31.98;38.51;97909.94;5060658;28;20037;-95
2022/07/19 09:46:30;;;;;;;9.32;2.78;;;;;;;32.19;35.16;97914.81;5045377;28;20652;-96
2022/07/19 09:49:07;;;;;;;12.02;2.47;;;;;;;32.37;34.28;97902.97;5051926;28;20068;-96
2022/07/19 09:51:54;;;;;;;8.77;2.97;;;;;;;32.81;34.24;97903.31;5061624;28;20096;-94
2022/07/19 09:54:25;;;;;;;8.35;2.72;;;;;;;32.55;33.51;97898.16;5043980;28;20053;-94
2022/07/19 09:56:55;;;;;;;11.75;2.65;;;;;;;32.84;33.96;97899.41;5049880;28;20481;-95
2022/07/19 09:59:30;;;;;;;11.65;2.80;;;;;;;32.98;33.32;97906.75;5064399;28;20029;-95
2022/07/19 10:01:56;;;;;;;14.45;3.08;;;;;;;32.71;32.19;97897.31;5045410;28;20028;-94
2022/07/19 10:04:25;;;;;;;9.00;2.60;;;;;;;32.80;32.49;97898.09;5045653;28;20537;-95
2022/07/19 10:06:51;;;;;;;10.38;2.80;;;;;;;32.93;31.72;97892.09;5040314;28;20136;-95
2022/07/19 10:09:21;;;;;;;10.98;2.72;;;;;;;32.95;32.02;97874.69;5046511;28;20029;-94
2022/07/19 10:11:47;;;;;;;8.95;2.88;;;;;;;32.89;31.78;97883.53;5048171;28;20047;-95
2022/07/19 10:14:13;;;;;;;8.27;2.72;;;;;;;33.25;30.71;97888.38;5068212;28;20028;-94
2022/07/19 10:16:46;;;;;;;9.48;2.83;;;;;;;33.33;30.28;97887.47;5049638;28;20028;-96
2022/07/19 10:19:24;;;;;;;9.10;3.03;;;;;;;33.83;30.51;97874.38;5060769;28;20087;-96
2022/07/19 10:21:51;;;;;;;8.15;2.70;;;;;;;34.01;30.59;97877.56;5059750;28;20114;-95
2022/07/19 10:24:42;;;;;;;10.13;3.00;;;;;;;34.01;29.76;97880.28;5049219;28;20028;-95
2022/07/19 10:27:08;;;;;;;11.40;2.78;;;;;;;34.41;29.79;97871.91;5058660;28;20059;-94
2022/07/19 10:29:34;;;;;;;8.15;2.80;;;;;;;34.54;28.66;97873.94;5061228;28;20029;-95
2022/07/19 10:32:08;;;;;;;8.95;2.78;;;;;;;34.66;28.71;97864.31;5044002;28;20140;-95
2022/07/19 10:34:35;;;;;;;12.77;2.90;;;;;;;34.55;28.01;97870.22;5059387;28;20029;-94
2022/07/19 10:37:01;;;;;;;12.52;3.25;;;;;;;35.01;28.08;97874.53;5047173;28;20052;-96
2022/07/19 10:39:34;;;;;;;10.05;3.10;;;;;;;35.49;28.54;97869.38;5062507;28;20102;-94
2022/07/19 10:42:16;;;;;;;8.73;2.80;;;;;;;35.06;28.68;97869.38;5022237;28;20047;-96
2022/07/19 10:44:57;;;;;;;13.23;3.40;;;;;;;35.06;28.85;97872.06;5063777;28;20053;-96
2022/07/19 10:47:31;;;;;;;12.93;3.80;;;;;;;34.94;28.39;97873.63;5068824;28;20489;-96
2022/07/19 10:50:21;;;;;;;10.25;3.28;;;;;;;35.21;28.23;97880.97;5070929;28;20029;-96
2022/07/19 10:52:48;;;;;;;12.02;3.40;;;;;;;35.07;27.89;97867.50;5066587;28;20025;-94
2022/07/19 10:55:27;;;;;;;8.73;2.97;;;;;;;35.49;28.54;97871.25;5065072;28;20063;-96
2022/07/19 10:58:17;;;;;;;10.25;3.15;;;;;;;34.83;27.64;97864.94;5070363;28;20042;-96
2022/07/19 11:00:46;;;;;;;10.10;3.45;;;;;;;35.00;26.94;97867.41;5073271;28;20028;-96
2022/07/19 11:03:25;;;;;;;10.75;3.30;;;;;;;35.20;27.51;97867.63;5073288;28;20151;-96
2022/07/19 11:06:02;;;;;;;12.90;3.40;;;;;;;35.16;26.72;97866.34;5049069;28;20028;-96
2022/07/19 11:08:36;;;;;;;13.85;3.35;;;;;;;35.84;26.64;97874.03;5053906;28;20135;-95
2022/07/19 11:11:07;;;;;;;12.50;3.40;;;;;;;35.86;26.11;97870.09;5064374;28;20497;-95
2022/07/19 11:13:53;;;;;;;10.98;3.08;;;;;;;36.02;27.69;97858.09;5049661;28;20040;-96
2022/07/19 11:16:19;;;;;;;13.02;3.80;;;;;;;35.43;26.47;97851.16;5054875;28;20095;-95
2022/07/19 11:18:46;;;;;;;13.68;3.35;;;;;;;35.51;27.28;97842.06;5061911;28;20028;-94
2022/07/19 11:21:13;;;;;;;10.57;3.20;;;;;;;36.24;26.97;97852.56;5068610;28;20033;-96
2022/07/19 11:23:39;;;;;;;13.32;3.65;;;;;;;35.90;26.13;97851.56;5066351;28;20098;-96
2022/07/19 11:26:24;;;;;;;11.90;3.42;;;;;;;35.99;27.09;97842.22;5067797;22;20039;-94
2022/07/19 11:28:50;;;;;;;11.88;3.70;;;;;;;35.89;26.93;97845.28;4989569;28;20062;-95
2022/07/19 11:31:50;;;;;;;12.00;3.65;;;;;;;35.84;25.91;97838.75;4960932;28;20047;-94
2022/07/19 11:34:28;;;;;;;11.52;3.97;;;;;;;36.10;25.74;97838.09;4957626;28;20109;-94
2022/07/19 11:37:05;;;;;;;10.32;3.90;;;;;;;36.18;26.40;97823.53;4940638;28;20050;-93
2022/07/19 11:39:49;;;;;;;12.02;3.60;;;;;;;36.00;25.67;97822.19;4978136;28;20061;-96
2022/07/19 11:42:29;;;;;;;11.60;3.80;;;;;;;36.07;25.71;97826.81;4962040;28;20152;-94